createdAt,value
2023-03-17T00:01:16.429Z,-0.20
2023-03-17T00:06:33.030Z,-0.20
2023-03-17T00:11:36.088Z,-0.20
2023-03-17T00:16:43.941Z,-0.20
2023-03-17T00:21:48.263Z,-0.30
2023-03-17T00:26:51.221Z,-0.40
2023-03-17T00:31:55.308Z,-0.40
2023-03-17T00:36:58.331Z,-0.40
2023-03-17T00:42:01.624Z,-0.50
2023-03-17T00:47:05.062Z,-0.50
2023-03-17T00:52:09.307Z,-0.60
2023-03-17T00:57:12.726Z,-0.60
2023-03-17T01:02:15.777Z,-0.60
2023-03-17T01:07:18.572Z,-0.70
2023-03-17T01:12:21.689Z,-0.70
2023-03-17T01:17:24.657Z,-0.70
2023-03-17T01:22:27.938Z,-0.80
2023-03-17T01:27:36.697Z,-0.80
2023-03-17T01:32:39.687Z,-0.90
2023-03-17T01:37:42.732Z,-0.90
2023-03-17T01:42:54.445Z,-0.90
2023-03-17T01:47:57.437Z,-0.90
2023-03-17T01:53:00.536Z,-0.90
2023-03-17T01:58:03.677Z,-1.00
2023-03-17T02:03:06.627Z,-1.00
2023-03-17T02:08:16.603Z,-1.00
2023-03-17T02:13:19.861Z,-1.10
2023-03-17T02:18:24.133Z,-1.10
2023-03-17T02:23:27.228Z,-1.10
2023-03-17T02:28:31.694Z,-1.20
2023-03-17T02:33:34.728Z,-1.20
2023-03-17T02:38:37.983Z,-1.30
2023-03-17T02:43:41.674Z,-1.30
2023-03-17T02:48:47.028Z,-1.30
2023-03-17T02:53:50.243Z,-1.30
2023-03-17T02:58:53.473Z,-1.30
2023-03-17T03:03:57.679Z,-1.30
2023-03-17T03:09:00.538Z,-1.40
2023-03-17T03:14:03.610Z,-1.40
2023-03-17T03:19:08.364Z,-1.50
2023-03-17T03:24:11.722Z,-1.50
2023-03-17T03:29:14.765Z,-1.60
2023-03-17T03:34:17.756Z,-1.60
2023-03-17T03:39:20.742Z,-1.60
2023-03-17T03:44:24.607Z,-1.70
2023-03-17T03:49:27.767Z,-1.70
2023-03-17T03:54:30.927Z,-1.70
2023-03-17T03:59:34.058Z,-1.80
2023-03-17T04:04:38.708Z,-1.80
2023-03-17T04:09:42.566Z,-1.90
2023-03-17T04:14:45.762Z,-1.90
2023-03-17T04:19:49.308Z,-1.90
2023-03-17T04:24:52.388Z,-2.00
2023-03-17T04:29:55.389Z,-2.00
2023-03-17T04:34:58.584Z,-2.00
2023-03-17T04:40:01.638Z,-2.00
2023-03-17T04:45:06.865Z,-2.10
2023-03-17T04:50:11.808Z,-2.10
2023-03-17T04:55:15.011Z,-2.10
2023-03-17T05:00:18.705Z,-2.10
2023-03-17T05:05:21.732Z,-2.10
2023-03-17T05:10:25.053Z,-2.10
2023-03-17T05:15:28.165Z,-2.10
2023-03-17T05:20:32.078Z,-2.10
2023-03-17T05:25:35.758Z,-2.10
2023-03-17T05:30:39.140Z,-2.00
2023-03-17T05:35:43.014Z,-1.90
2023-03-17T05:40:46.139Z,-1.70
2023-03-17T05:45:50.737Z,-1.60
2023-03-17T05:50:54.151Z,-1.40
2023-03-17T05:55:56.994Z,-1.30
2023-03-17T06:01:00.009Z,-1.10
2023-03-17T06:06:03.027Z,-0.90
2023-03-17T06:11:06.811Z,-0.70
2023-03-17T06:16:09.937Z,-0.50
2023-03-17T06:21:13.852Z,-0.30
2023-03-17T06:26:16.779Z,-0.10
2023-03-17T06:31:19.926Z,0.20
2023-03-17T06:36:23.428Z,0.30
2023-03-17T06:41:27.672Z,0.60
2023-03-17T06:46:30.553Z,0.90
2023-03-17T06:51:34.363Z,1.10
2023-03-17T06:56:37.350Z,1.40
2023-03-17T07:01:40.878Z,1.80
2023-03-17T07:06:44.994Z,2.20
2023-03-17T07:11:47.990Z,2.60
2023-03-17T07:16:51.041Z,3.00
2023-03-17T07:21:57.706Z,3.40
2023-03-17T07:27:00.777Z,3.80
2023-03-17T07:32:06.504Z,4.20
2023-03-17T07:37:10.442Z,4.50
2023-03-17T07:42:17.186Z,4.90
2023-03-17T07:47:20.626Z,5.10
2023-03-17T07:52:23.700Z,5.40
2023-03-17T07:57:27.415Z,5.70
2023-03-17T08:02:31.881Z,6.00
2023-03-17T08:07:37.565Z,6.30
2023-03-17T08:12:42.666Z,6.60
2023-03-17T08:17:45.734Z,7.20
2023-03-17T08:22:48.745Z,7.90
2023-03-17T08:27:52.151Z,8.50
2023-03-17T08:32:55.049Z,9.10
2023-03-17T08:37:58.117Z,9.60
2023-03-17T08:43:01.372Z,10.10
2023-03-17T08:48:04.486Z,10.70
2023-03-17T08:53:08.555Z,11.40
2023-03-17T08:58:11.513Z,12.00
2023-03-17T09:03:15.483Z,12.50
2023-03-17T09:08:18.497Z,12.90
2023-03-17T09:13:22.820Z,13.20
2023-03-17T09:18:26.129Z,13.40
2023-03-17T09:23:29.287Z,13.70
2023-03-17T09:28:32.903Z,14.00
2023-03-17T09:33:35.917Z,14.00
2023-03-17T09:38:39.259Z,13.70
2023-03-17T09:44:00.606Z,13.20
2023-03-17T09:49:08.355Z,13.10
2023-03-17T09:54:34.190Z,13.40
2023-03-17T09:59:48.152Z,14.00
2023-03-17T10:04:52.011Z,14.80
2023-03-17T10:10:24.362Z,15.30
2023-03-17T10:16:01.597Z,15.60
2023-03-17T10:21:07.981Z,15.40
2023-03-17T10:26:46.661Z,15.20
2023-03-17T10:31:56.374Z,15.20
2023-03-17T10:37:15.585Z,15.20
2023-03-17T10:42:30.348Z,15.50
2023-03-17T10:47:44.733Z,15.90
2023-03-17T10:52:53.661Z,16.30
2023-03-17T10:58:15.572Z,16.40
2023-03-17T11:03:39.985Z,16.50
2023-03-17T11:08:49.505Z,16.90
2023-03-17T11:14:06.171Z,17.20
2023-03-17T11:19:17.009Z,17.40
2023-03-17T11:24:51.497Z,17.80
2023-03-17T11:30:19.129Z,18.10
2023-03-17T11:35:44.237Z,18.60
2023-03-17T11:41:33.859Z,19.10
2023-03-17T11:46:46.691Z,19.30
2023-03-17T11:52:16.437Z,19.30
2023-03-17T11:57:52.941Z,19.40
2023-03-17T12:03:09.164Z,19.40
2023-03-17T12:08:35.727Z,19.40
2023-03-17T12:13:57.061Z,19.40
2023-03-17T12:19:42.584Z,19.20
2023-03-17T12:25:16.692Z,19.10
2023-03-17T12:30:54.508Z,18.80
2023-03-17T12:35:59.022Z,18.50
2023-03-17T12:41:45.541Z,18.30
2023-03-17T12:47:23.327Z,18.00
2023-03-17T12:52:37.610Z,17.60
2023-03-17T12:58:08.109Z,17.50
2023-03-17T13:03:23.948Z,17.20
2023-03-17T13:08:45.283Z,16.70
2023-03-17T13:14:08.743Z,16.30
2023-03-17T13:19:33.612Z,16.00
2023-03-17T13:24:52.322Z,15.70
2023-03-17T13:29:55.337Z,15.50
2023-03-17T13:35:01.753Z,15.30
2023-03-17T13:40:13.667Z,15.00
2023-03-17T13:45:43.185Z,15.10
2023-03-17T13:50:47.944Z,15.10
2023-03-17T13:56:31.721Z,15.20
2023-03-17T14:01:51.578Z,15.20
2023-03-17T14:07:00.733Z,15.20
2023-03-17T14:12:24.878Z,15.20
2023-03-17T14:17:47.110Z,15.00
2023-03-17T14:23:02.331Z,15.00
2023-03-17T14:28:12.418Z,15.10
2023-03-17T14:33:37.972Z,15.30
2023-03-17T14:38:53.182Z,15.60
2023-03-17T14:44:01.600Z,15.80
2023-03-17T14:49:20.448Z,15.70
2023-03-17T14:54:35.254Z,15.50
2023-03-17T14:59:41.431Z,15.40
2023-03-17T15:05:12.920Z,15.20
2023-03-17T15:10:22.938Z,15.40
2023-03-17T15:15:39.193Z,15.70
2023-03-17T15:20:44.363Z,16.00
2023-03-17T15:25:56.390Z,16.00
2023-03-17T15:31:13.090Z,15.70
2023-03-17T15:36:31.451Z,15.10
2023-03-17T15:41:34.895Z,14.50
2023-03-17T15:46:37.678Z,14.00
2023-03-17T15:51:40.645Z,13.50
2023-03-17T15:56:43.705Z,13.20
2023-03-17T16:01:46.951Z,12.80
2023-03-17T16:06:50.034Z,12.50
2023-03-17T16:11:52.988Z,12.10
2023-03-17T16:16:56.183Z,11.70
2023-03-17T16:21:59.343Z,11.40
2023-03-17T16:27:02.638Z,11.10
2023-03-17T16:32:09.147Z,10.80
2023-03-17T16:37:21.164Z,10.60
2023-03-17T16:42:24.619Z,10.20
2023-03-17T16:47:27.772Z,9.90
2023-03-17T16:52:31.354Z,9.60
2023-03-17T16:57:34.472Z,9.20
2023-03-17T17:02:37.492Z,8.90
2023-03-17T17:07:40.772Z,8.50
2023-03-17T17:12:44.192Z,8.20
2023-03-17T17:18:01.365Z,7.90
2023-03-17T17:23:05.006Z,7.60
2023-03-17T17:28:08.805Z,7.30
2023-03-17T17:33:12.711Z,7.10
2023-03-17T17:38:29.142Z,6.90
2023-03-17T17:43:32.515Z,6.70
2023-03-17T17:48:35.710Z,6.50
2023-03-17T17:53:39.253Z,6.30
2023-03-17T17:58:43.232Z,6.20
2023-03-17T18:03:46.464Z,6.10
2023-03-17T18:08:50.384Z,6.00
2023-03-17T18:13:53.440Z,5.90
2023-03-17T18:18:57.859Z,5.80
2023-03-17T18:24:01.508Z,5.70
2023-03-17T18:29:05.997Z,5.60
2023-03-17T18:34:19.511Z,5.50
2023-03-17T18:39:23.004Z,5.30
2023-03-17T18:44:25.849Z,5.20
2023-03-17T18:49:29.122Z,5.00
2023-03-17T18:54:32.342Z,4.90
2023-03-17T18:59:35.636Z,4.70
2023-03-17T19:04:45.877Z,4.60
2023-03-17T19:09:49.578Z,4.50
2023-03-17T19:14:52.878Z,4.40
2023-03-17T19:19:56.162Z,4.20
2023-03-17T19:24:59.452Z,4.10
2023-03-17T19:30:02.875Z,3.90
2023-03-17T19:35:07.980Z,3.90
2023-03-17T19:40:13.400Z,3.70
2023-03-17T19:45:16.601Z,3.70
2023-03-17T19:50:20.662Z,3.50
2023-03-17T19:55:25.396Z,3.50
2023-03-17T20:00:28.325Z,3.40
2023-03-17T20:05:31.347Z,3.30
2023-03-17T20:10:34.601Z,3.20
2023-03-17T20:15:38.323Z,3.10
2023-03-17T20:20:54.086Z,3.10
2023-03-17T20:25:57.469Z,3.10
2023-03-17T20:31:04.758Z,3.00
2023-03-17T20:36:08.536Z,3.00
2023-03-17T20:41:18.603Z,2.90
2023-03-17T20:46:24.819Z,2.80
2023-03-17T20:51:28.288Z,2.80
2023-03-17T20:56:34.297Z,2.70
2023-03-17T21:01:38.904Z,2.60
2023-03-17T21:06:42.901Z,2.60
2023-03-17T21:11:46.718Z,2.50
2023-03-17T21:16:50.423Z,2.50
2023-03-17T21:21:53.964Z,2.40
2023-03-17T21:26:57.560Z,2.30
2023-03-17T21:32:02.055Z,2.30
2023-03-17T21:37:05.893Z,2.20
2023-03-17T21:42:09.749Z,2.20
2023-03-17T21:47:12.785Z,2.10
2023-03-17T21:52:16.293Z,2.10
2023-03-17T21:57:19.450Z,2.10
2023-03-17T22:02:23.833Z,2.00
2023-03-17T22:07:26.856Z,1.90
2023-03-17T22:12:29.649Z,1.90
2023-03-17T22:17:32.725Z,1.80
2023-03-17T22:22:36.045Z,1.80
2023-03-17T22:27:39.015Z,1.70
2023-03-17T22:32:42.778Z,1.70
2023-03-17T22:37:45.962Z,1.60
2023-03-17T22:42:48.931Z,1.60
2023-03-17T22:47:52.443Z,1.60
2023-03-17T22:52:55.514Z,1.60
2023-03-17T22:57:58.432Z,1.50
2023-03-17T23:03:01.582Z,1.50
2023-03-17T23:08:04.950Z,1.40
2023-03-17T23:13:08.600Z,1.40
2023-03-17T23:18:12.176Z,1.30
2023-03-17T23:23:15.410Z,1.20
2023-03-17T23:28:20.053Z,1.20
2023-03-17T23:33:24.118Z,1.20
2023-03-17T23:38:27.961Z,1.10
2023-03-17T23:43:31.233Z,1.10
2023-03-17T23:48:34.182Z,1.10
2023-03-17T23:53:39.705Z,0.90
2023-03-17T23:58:43.681Z,0.90
